Time;durP1;ratioP1;P1;durP2;ratioP2;P2;SDS_P1;SDS_P2;PMS_P1;PMS_P2;Temp;Humidity;BMP_temperature;BMP_pressure;BME280_temperature;BME280_humidity;BME280_pressure;Samples;Min_cycle;Max_cycle;Signal;HPM_P1;HPM_P2
2022/07/10 00:00:11;;;;;;;6.10;1.37;;;;;;;14.64;100.00;102470.16;5013237;28;20197;-73
2022/07/10 00:02:38;;;;;;;3.70;1.10;;;;;;;15.01;100.00;102527.78;5013053;28;20795;-72
2022/07/10 00:05:05;;;;;;;4.50;1.60;;;;;;;15.31;100.00;102588.09;5014648;28;20470;-73
2022/07/10 00:07:30;;;;;;;3.03;1.07;;;;;;;15.08;100.00;102572.81;5005675;28;20440;-72
2022/07/10 00:09:56;;;;;;;3.80;1.27;;;;;;;15.20;100.00;102581.28;5009694;28;20623;-72
2022/07/10 00:12:21;;;;;;;2.57;0.80;;;;;;;14.54;100.00;102485.78;5007565;28;20185;-71
2022/07/10 00:14:47;;;;;;;2.50;0.90;;;;;;;14.78;100.00;102515.22;5008735;28;20270;-72
2022/07/10 00:17:12;;;;;;;3.60;0.93;;;;;;;14.60;100.00;102483.16;5013242;28;20196;-72
2022/07/10 00:19:37;;;;;;;2.00;0.70;;;;;;;15.14;100.00;102604.47;5009253;28;20239;-72
2022/07/10 00:22:03;;;;;;;3.17;0.90;;;;;;;15.16;100.00;102571.88;5010079;28;20613;-72
2022/07/10 00:24:28;;;;;;;1.70;0.90;;;;;;;15.18;100.00;102561.69;5011440;28;20672;-72
2022/07/10 00:26:54;;;;;;;2.57;0.70;;;;;;;15.23;100.00;102563.84;5007026;28;20616;-72
2022/07/10 00:29:19;;;;;;;2.40;0.80;;;;;;;15.10;100.00;102564.50;4988397;28;20275;-72
2022/07/10 00:31:45;;;;;;;2.30;0.70;;;;;;;15.20;100.00;102570.47;5014163;28;20314;-72
2022/07/10 00:34:11;;;;;;;6.17;0.80;;;;;;;14.73;100.00;102476.28;5010561;28;20565;-72
2022/07/10 00:36:37;;;;;;;3.67;1.07;;;;;;;15.15;100.00;102559.38;5007503;28;20255;-72
2022/07/10 00:39:03;;;;;;;2.03;0.90;;;;;;;14.93;100.00;102553.06;5010724;28;20451;-72
2022/07/10 00:41:28;;;;;;;3.40;1.00;;;;;;;14.90;100.00;102507.50;5005555;28;20292;-72
2022/07/10 00:43:58;;;;;;;2.53;0.83;;;;;;;15.00;100.00;102578.28;5011129;28;20192;-74
2022/07/10 00:46:26;;;;;;;2.30;0.90;;;;;;;14.88;100.00;102585.19;5005830;28;20180;-73
2022/07/10 00:48:52;;;;;;;3.93;1.40;;;;;;;14.39;100.00;102518.94;5010018;28;20455;-73
2022/07/10 00:51:20;;;;;;;3.00;0.90;;;;;;;14.18;100.00;102503.47;5009508;28;20571;-72
2022/07/10 00:53:47;;;;;;;5.00;1.00;;;;;;;14.60;100.00;102541.75;5010625;28;20471;-73
2022/07/10 00:56:16;;;;;;;3.20;1.10;;;;;;;14.74;100.00;102564.41;5014734;28;20932;-72
2022/07/10 00:58:42;;;;;;;5.40;0.80;;;;;;;14.34;100.00;102498.94;5011601;28;20506;-73
2022/07/10 01:01:07;;;;;;;1.93;1.10;;;;;;;14.25;100.00;102490.91;5018580;28;20420;-73
2022/07/10 01:03:32;;;;;;;6.57;1.30;;;;;;;14.22;100.00;102439.16;5010258;28;20953;-72
2022/07/10 01:05:58;;;;;;;2.80;0.77;;;;;;;14.71;100.00;102527.78;5010942;28;20274;-72
2022/07/10 01:08:24;;;;;;;3.67;1.33;;;;;;;13.85;100.00;102391.44;5007797;28;20327;-72
2022/07/10 01:10:50;;;;;;;2.73;0.90;;;;;;;13.77;100.00;102387.00;5014414;28;20209;-72
2022/07/10 01:13:16;;;;;;;3.63;1.03;;;;;;;14.68;100.00;102534.38;5008483;28;21360;-72
2022/07/10 01:15:42;;;;;;;2.70;1.07;;;;;;;13.83;100.00;102378.16;5007738;28;20221;-73
2022/07/10 01:18:07;;;;;;;5.50;1.80;;;;;;;14.49;100.00;102470.09;5010752;28;20224;-72
2022/07/10 01:20:33;;;;;;;5.13;1.37;;;;;;;14.75;100.00;102536.34;5011035;28;20459;-72
2022/07/10 01:22:59;;;;;;;3.37;1.37;;;;;;;14.91;100.00;102541.59;5011687;28;20192;-72
2022/07/10 01:25:25;;;;;;;4.53;1.17;;;;;;;14.90;100.00;102534.50;5009762;28;20558;-71
2022/07/10 01:27:51;;;;;;;5.30;0.93;;;;;;;15.05;100.00;102532.63;5007234;28;20542;-72
2022/07/10 01:30:19;;;;;;;3.13;0.90;;;;;;;14.89;100.00;102532.81;5007118;28;20339;-72
2022/07/10 01:32:44;;;;;;;6.53;1.50;;;;;;;14.87;100.00;102497.91;5006206;28;20444;-72
2022/07/10 01:35:10;;;;;;;3.43;1.00;;;;;;;14.95;100.00;102523.97;5011518;28;20464;-71
2022/07/10 01:37:36;;;;;;;5.07;1.30;;;;;;;14.29;100.00;102431.16;5014947;28;20646;-72
2022/07/10 01:40:02;;;;;;;3.27;1.10;;;;;;;14.30;100.00;102401.28;5013268;28;20439;-72
2022/07/10 01:42:28;;;;;;;2.73;0.93;;;;;;;14.91;100.00;102487.56;5005345;28;20185;-72
2022/07/10 01:44:53;;;;;;;2.10;0.90;;;;;;;14.99;100.00;102527.16;5011761;28;20466;-71
2022/07/10 01:47:19;;;;;;;4.23;1.27;;;;;;;14.10;100.00;102352.44;5008864;28;20185;-72
2022/07/10 01:49:44;;;;;;;1.57;0.93;;;;;;;14.71;100.00;102456.72;5006229;28;20213;-72
2022/07/10 01:52:10;;;;;;;2.60;0.80;;;;;;;15.05;100.00;102497.50;5008289;28;20193;-72
2022/07/10 01:54:35;;;;;;;3.67;1.00;;;;;;;14.15;100.00;102357.28;5003481;28;20214;-72
2022/07/10 01:57:01;;;;;;;6.20;1.17;;;;;;;14.79;100.00;102470.97;5011373;28;20192;-72
2022/07/10 01:59:26;;;;;;;2.30;0.80;;;;;;;14.99;100.00;102475.81;5005467;28;20201;-72
2022/07/10 02:01:52;;;;;;;3.60;0.97;;;;;;;14.18;100.00;102346.94;5005711;28;20272;-72
2022/07/10 02:07:01;;;;;;;4.03;1.00;;;;;;;15.05;100.00;102485.88;5007002;28;20196;-72
2022/07/10 02:09:26;;;;;;;3.30;0.80;;;;;;;14.58;100.00;102428.53;5008893;28;20444;-72
2022/07/10 02:11:51;;;;;;;2.50;0.77;;;;;;;14.72;100.00;102451.13;5004803;28;20196;-72
2022/07/10 02:14:17;;;;;;;1.57;0.70;;;;;;;14.98;100.00;102485.75;5009911;28;20299;-72
2022/07/10 02:16:44;;;;;;;3.47;1.00;;;;;;;14.77;100.00;102423.56;5008684;28;20193;-72
2022/07/10 02:19:10;;;;;;;2.20;1.10;;;;;;;15.07;100.00;102483.78;5012955;28;20465;-72
2022/07/10 02:21:35;;;;;;;3.20;1.17;;;;;;;15.15;100.00;102457.50;5004874;28;20440;-72
2022/07/10 02:24:01;;;;;;;2.20;0.80;;;;;;;15.12;100.00;102455.19;4993262;28;20189;-72
2022/07/10 02:26:26;;;;;;;2.37;0.87;;;;;;;15.07;100.00;102441.41;5006039;28;20272;-71
2022/07/10 02:28:51;;;;;;;2.63;0.90;;;;;;;15.14;100.00;102455.84;5009554;28;20268;-72
2022/07/10 02:31:17;;;;;;;4.73;1.10;;;;;;;14.72;100.00;102401.69;5006339;28;20234;-71
2022/07/10 02:33:42;;;;;;;7.20;1.07;;;;;;;14.72;100.00;102385.47;5008798;28;20281;-71
2022/07/10 02:36:07;;;;;;;3.80;1.30;;;;;;;15.09;100.00;102474.47;4994250;28;20236;-71
2022/07/10 02:38:33;;;;;;;3.40;0.90;;;;;;;13.50;100.00;102216.69;5006087;28;20181;-72
2022/07/10 02:40:58;;;;;;;3.37;1.10;;;;;;;12.73;100.00;102116.38;4999764;28;20267;-72
2022/07/10 02:43:24;;;;;;;2.53;1.27;;;;;;;14.67;100.00;102403.09;5012219;28;20187;-72
2022/07/10 02:45:49;;;;;;;5.60;1.17;;;;;;;15.04;100.00;102485.03;5015133;28;20676;-72
2022/07/10 02:48:15;;;;;;;4.03;1.00;;;;;;;14.90;100.00;102412.94;5013225;28;20195;-72
2022/07/10 02:50:41;;;;;;;5.50;1.63;;;;;;;15.07;100.00;102471.16;5009374;28;20204;-71
2022/07/10 02:53:06;;;;;;;5.83;0.83;;;;;;;15.05;100.00;102456.16;5010873;28;20451;-71
2022/07/10 02:55:32;;;;;;;8.90;1.20;;;;;;;15.07;100.00;102475.69;5011268;28;20302;-71
2022/07/10 02:57:59;;;;;;;1.30;1.00;;;;;;;14.81;100.00;102444.63;5013119;28;20198;-72
2022/07/10 03:00:26;;;;;;;5.23;1.00;;;;;;;14.99;100.00;102456.91;5011631;28;20216;-72
2022/07/10 03:02:52;;;;;;;5.33;1.20;;;;;;;14.51;100.00;102388.91;5013778;28;20436;-72
2022/07/10 03:05:18;;;;;;;3.10;1.07;;;;;;;14.82;100.00;102445.47;5014451;28;20977;-72
2022/07/10 03:07:43;;;;;;;3.23;0.90;;;;;;;14.85;100.00;102434.28;5001543;28;20518;-72
2022/07/10 03:10:09;;;;;;;3.00;1.10;;;;;;;14.26;100.00;102381.09;5019476;28;20215;-72
2022/07/10 03:12:34;;;;;;;2.93;1.10;;;;;;;14.95;100.00;102466.38;5006252;28;20271;-72
2022/07/10 03:15:00;;;;;;;3.50;1.27;;;;;;;13.64;100.00;102266.25;5011004;28;20220;-71
2022/07/10 03:17:25;;;;;;;2.97;1.40;;;;;;;15.04;100.00;102463.41;5015970;28;20214;-72
2022/07/10 03:19:50;;;;;;;5.57;1.40;;;;;;;14.42;100.00;102378.22;5011549;28;20222;-73
2022/07/10 03:22:16;;;;;;;8.00;1.70;;;;;;;13.46;100.00;102226.19;5015156;28;20223;-72
2022/07/10 03:24:43;;;;;;;3.83;1.33;;;;;;;14.12;100.00;102328.81;5019221;28;20213;-72
2022/07/10 03:27:08;;;;;;;2.23;1.00;;;;;;;14.53;100.00;102374.25;5015085;28;20192;-72
2022/07/10 03:29:34;;;;;;;6.20;1.53;;;;;;;15.08;100.00;102483.63;5012491;28;20470;-73
2022/07/10 03:31:59;;;;;;;2.93;0.93;;;;;;;15.10;100.00;102454.56;5011897;28;20451;-72
2022/07/10 03:34:25;;;;;;;2.97;0.80;;;;;;;15.14;100.00;102460.41;5009533;28;20825;-72
2022/07/10 03:36:51;;;;;;;4.03;1.13;;;;;;;14.88;100.00;102409.56;4988969;28;20586;-72
2022/07/10 03:39:16;;;;;;;4.70;1.00;;;;;;;14.89;100.00;102397.72;5012768;28;20603;-72
2022/07/10 03:41:42;;;;;;;3.70;1.10;;;;;;;14.53;100.00;102352.63;5008236;28;20447;-72
2022/07/10 03:44:07;;;;;;;5.83;1.50;;;;;;;15.14;100.00;102449.59;5012940;28;20293;-72
2022/07/10 03:46:33;;;;;;;3.53;1.20;;;;;;;15.13;100.00;102453.34;5010214;28;20255;-72
2022/07/10 03:48:58;;;;;;;4.47;1.60;;;;;;;14.66;100.00;102387.06;4998446;28;20177;-72
2022/07/10 03:51:23;;;;;;;5.20;1.40;;;;;;;13.61;100.00;102201.94;4992246;28;20253;-73
2022/07/10 03:53:49;;;;;;;4.43;1.00;;;;;;;14.71;100.00;102392.75;5009977;28;20207;-72
2022/07/10 03:57:53;;;;;;;7.00;1.30;;;;;;;14.42;100.00;102339.59;4993150;28;20228;-71
2022/07/10 03:58:59;;;;;;;3.03;0.93;;;;;;;14.65;100.00;102391.63;5010454;28;20189;-72
2022/07/10 04:01:25;;;;;;;3.80;1.17;;;;;;;14.30;100.00;102343.78;4999620;28;20436;-72
2022/07/10 04:03:50;;;;;;;3.83;1.40;;;;;;;15.07;100.00;102467.56;5007873;28;20189;-72
2022/07/10 04:06:15;;;;;;;6.00;1.40;;;;;;;15.01;100.00;102442.16;5008143;28;20223;-72
2022/07/10 04:08:41;;;;;;;5.27;1.40;;;;;;;14.50;100.00;102362.94;5008460;28;20600;-72
2022/07/10 04:11:06;;;;;;;5.50;1.50;;;;;;;14.37;100.00;102342.84;5006744;28;20583;-71
2022/07/10 04:13:32;;;;;;;2.50;0.83;;;;;;;15.07;100.00;102460.34;5008595;28;20184;-71
2022/07/10 04:15:57;;;;;;;5.50;1.20;;;;;;;15.08;100.00;102437.69;5020668;22;20192;-68
2022/07/10 04:18:22;;;;;;;4.67;1.20;;;;;;;15.17;100.00;102442.97;4997233;28;20686;-67
2022/07/10 04:20:48;;;;;;;5.33;1.40;;;;;;;15.09;100.00;102444.75;5000603;28;20197;-67
2022/07/10 04:23:13;;;;;;;7.17;1.20;;;;;;;15.08;100.00;102459.28;4983707;28;20704;-68
2022/07/10 04:25:39;;;;;;;3.57;1.40;;;;;;;14.91;100.00;102452.44;4979201;28;20193;-68
2022/07/10 04:28:04;;;;;;;5.37;0.90;;;;;;;14.75;100.00;102412.09;4962848;28;20190;-68
2022/07/10 04:30:29;;;;;;;3.87;1.10;;;;;;;15.02;100.00;102445.72;4976650;28;20210;-67
2022/07/10 04:32:55;;;;;;;5.57;1.20;;;;;;;15.04;100.00;102435.53;4975806;28;20234;-67
2022/07/10 04:35:20;;;;;;;6.33;1.63;;;;;;;14.72;100.00;102396.28;4979155;28;20190;-68
2022/07/10 04:37:46;;;;;;;3.37;0.83;;;;;;;14.82;100.00;102421.16;4981777;28;20201;-68
2022/07/10 04:40:11;;;;;;;4.97;1.00;;;;;;;14.52;100.00;102382.50;4964409;28;20193;-67
2022/07/10 04:42:37;;;;;;;4.93;1.20;;;;;;;14.92;100.00;102457.63;4963023;28;20197;-67
2022/07/10 04:45:03;;;;;;;5.47;1.03;;;;;;;14.91;100.00;102464.06;4980212;28;20190;-67
2022/07/10 04:47:28;;;;;;;3.20;0.90;;;;;;;14.96;100.00;102458.09;4976587;28;20194;-68
2022/07/10 04:49:53;;;;;;;4.40;0.93;;;;;;;15.02;100.00;102461.94;4978711;28;20210;-67
2022/07/10 04:52:19;;;;;;;2.83;0.80;;;;;;;15.15;100.00;102460.19;4979666;28;20216;-67
2022/07/10 04:54:44;;;;;;;4.47;1.37;;;;;;;14.85;100.00;102412.66;4979796;28;20644;-68
2022/07/10 04:57:10;;;;;;;2.63;0.90;;;;;;;15.37;100.00;102468.38;4982431;28;20222;-67
2022/07/10 04:59:35;;;;;;;2.30;1.10;;;;;;;15.39;100.00;102458.22;4981139;28;20189;-68
2022/07/10 05:02:00;;;;;;;4.23;1.13;;;;;;;15.34;100.00;102441.72;4981761;28;20210;-67
2022/07/10 05:04:26;;;;;;;2.93;1.00;;;;;;;15.38;100.00;102441.13;4980604;28;20276;-67
2022/07/10 05:06:51;;;;;;;2.73;0.93;;;;;;;15.64;100.00;102460.53;4981759;28;20206;-67
2022/07/10 05:09:19;;;;;;;7.20;1.13;;;;;;;15.72;100.00;102453.16;4981756;28;20325;-67
2022/07/10 05:11:45;;;;;;;2.83;1.20;;;;;;;15.58;100.00;102444.03;4961163;28;20573;-67
2022/07/10 05:14:11;;;;;;;2.97;1.03;;;;;;;15.71;100.00;102464.19;4979257;28;20515;-68
2022/07/10 05:16:36;;;;;;;3.43;1.07;;;;;;;15.45;100.00;102441.22;4962314;28;20465;-67
2022/07/10 05:19:01;;;;;;;3.30;0.97;;;;;;;15.69;100.00;102468.94;4980029;28;20568;-67
2022/07/10 05:21:27;;;;;;;3.90;1.17;;;;;;;15.69;100.00;102460.81;4976933;28;20182;-68
2022/07/10 05:23:52;;;;;;;8.33;1.30;;;;;;;15.48;100.00;102456.22;4978893;28;20209;-67
2022/07/10 05:26:18;;;;;;;4.53;1.30;;;;;;;15.57;100.00;102455.91;4978557;28;20188;-68
2022/07/10 05:28:43;;;;;;;6.03;1.90;;;;;;;15.68;100.00;102454.59;4965291;28;20604;-68
2022/07/10 05:31:09;;;;;;;6.20;1.30;;;;;;;15.54;100.00;102434.66;4959842;28;20198;-68
2022/07/10 05:33:34;;;;;;;7.87;1.10;;;;;;;15.62;100.00;102466.13;4973492;28;20292;-68
2022/07/10 05:36:00;;;;;;;5.20;1.13;;;;;;;15.44;100.00;102427.88;4977918;28;20187;-67
2022/07/10 05:38:25;;;;;;;8.63;1.30;;;;;;;15.73;100.00;102464.81;4977798;28;20228;-67
2022/07/10 05:40:53;;;;;;;4.63;1.53;;;;;;;15.61;100.00;102448.22;4977955;28;20683;-67
2022/07/10 05:43:18;;;;;;;3.73;1.17;;;;;;;15.47;100.00;102446.41;4974511;28;20451;-70
2022/07/10 05:45:43;;;;;;;4.43;2.00;;;;;;;15.68;100.00;102459.13;4976333;28;20890;-67
2022/07/10 05:48:10;;;;;;;3.37;1.20;;;;;;;15.52;100.00;102442.09;4965084;28;20256;-67
2022/07/10 05:50:35;;;;;;;5.00;1.30;;;;;;;15.65;100.00;102465.75;4961281;28;20198;-68
2022/07/10 05:53:01;;;;;;;5.00;1.30;;;;;;;15.58;100.00;102454.03;4964338;28;20472;-67
2022/07/10 05:55:26;;;;;;;5.20;1.50;;;;;;;15.68;100.00;102473.53;4964001;28;20186;-67
2022/07/10 05:57:52;;;;;;;8.50;1.47;;;;;;;15.66;100.00;102474.72;4977974;28;20629;-67
2022/07/10 06:00:18;;;;;;;4.13;1.30;;;;;;;15.74;100.00;102475.44;4977728;28;20221;-67
2022/07/10 06:02:43;;;;;;;3.80;1.23;;;;;;;15.69;100.00;102475.19;4973488;28;20611;-67
2022/07/10 06:05:09;;;;;;;4.27;1.40;;;;;;;15.70;100.00;102476.00;4978925;28;20190;-67
2022/07/10 06:07:35;;;;;;;4.50;1.30;;;;;;;15.66;100.00;102475.53;4974077;28;20213;-67
2022/07/10 06:10:00;;;;;;;5.23;1.40;;;;;;;15.70;100.00;102487.66;4965206;28;20490;-67
2022/07/10 06:12:26;;;;;;;4.53;1.20;;;;;;;15.65;100.00;102482.00;4974662;28;20292;-68
2022/07/10 06:14:51;;;;;;;5.83;1.50;;;;;;;15.88;100.00;102487.25;4961064;28;20503;-67
2022/07/10 06:17:17;;;;;;;9.23;1.50;;;;;;;15.81;100.00;102473.63;4935068;28;1269142;-67
2022/07/10 06:19:42;;;;;;;3.00;1.30;;;;;;;15.89;100.00;102477.25;4976315;28;20296;-67
2022/07/10 06:24:51;;;;;;;3.30;1.13;;;;;;;15.88;100.00;102480.97;4976075;28;20732;-67
2022/07/10 06:27:17;;;;;;;4.50;1.23;;;;;;;15.74;100.00;102485.44;4975981;28;20446;-67
2022/07/10 06:29:42;;;;;;;3.60;1.23;;;;;;;15.86;100.00;102496.56;4977538;28;20240;-67
2022/07/10 06:32:08;;;;;;;4.10;0.90;;;;;;;15.71;100.00;102488.53;4975582;28;20272;-67
2022/07/10 06:34:34;;;;;;;3.00;1.10;;;;;;;15.51;100.00;102485.59;4964604;28;20328;-67
2022/07/10 06:37:01;;;;;;;3.83;1.13;;;;;;;15.60;100.00;102506.06;4978251;28;20446;-67
2022/07/10 06:39:27;;;;;;;4.17;1.10;;;;;;;15.32;100.00;102470.78;4977209;28;20197;-67
2022/07/10 06:41:53;;;;;;;1.87;1.17;;;;;;;15.68;100.00;102494.28;4979466;28;20560;-67
2022/07/10 06:44:18;;;;;;;10.03;1.37;;;;;;;15.73;100.00;102505.38;4981809;28;20498;-67
2022/07/10 06:47:55;;;;;;;3.53;1.10;;;;;;;15.82;100.00;102496.09;4982735;28;20193;-68
2022/07/10 06:49:29;;;;;;;5.90;1.50;;;;;;;15.69;100.00;102466.22;4980889;28;20190;-67
2022/07/10 06:51:55;;;;;;;2.80;0.90;;;;;;;15.88;100.00;102459.31;4966930;28;20829;-67
2022/07/10 06:54:21;;;;;;;4.07;1.20;;;;;;;16.17;100.00;102480.81;4982639;28;20189;-67
2022/07/10 06:56:46;;;;;;;4.50;1.40;;;;;;;16.11;100.00;102480.75;4981478;28;20441;-68
2022/07/10 06:59:11;;;;;;;4.87;1.30;;;;;;;15.90;100.00;102436.44;4983336;28;20185;-68
2022/07/10 07:01:37;;;;;;;3.50;1.30;;;;;;;16.14;100.00;102491.19;4979733;28;20208;-67
2022/07/10 07:04:02;;;;;;;3.93;1.17;;;;;;;16.02;100.00;102494.41;4962178;28;20189;-67
2022/07/10 07:06:28;;;;;;;5.90;1.50;;;;;;;15.93;100.00;102487.47;4979630;28;20178;-67
2022/07/10 07:08:53;;;;;;;6.20;1.40;;;;;;;16.00;100.00;102485.69;4967609;28;20185;-67
2022/07/10 07:11:18;;;;;;;4.60;1.60;;;;;;;15.98;100.00;102478.78;4965178;28;20564;-67
2022/07/10 07:13:44;;;;;;;3.13;1.00;;;;;;;15.94;100.00;102459.41;4981391;28;20189;-67
2022/07/10 07:16:10;;;;;;;4.90;1.60;;;;;;;15.89;100.00;102459.13;4980454;28;20273;-67
2022/07/10 07:18:37;;;;;;;4.10;1.50;;;;;;;15.87;100.00;102463.91;4982752;28;20178;-67
2022/07/10 07:23:46;;;;;;;4.47;1.13;;;;;;;15.76;100.00;102499.59;4978842;28;20484;-67
2022/07/10 07:26:12;;;;;;;3.57;1.13;;;;;;;15.51;100.00;102515.31;4981250;28;20882;-67
2022/07/10 07:28:38;;;;;;;7.70;1.67;;;;;;;15.17;100.00;102478.94;4966473;28;21131;-68
2022/07/10 07:31:03;;;;;;;6.43;1.77;;;;;;;15.34;100.00;102493.91;4979162;28;20224;-67
2022/07/10 07:33:29;;;;;;;4.63;1.33;;;;;;;15.53;100.00;102532.19;4981387;28;20263;-67
2022/07/10 07:35:54;;;;;;;3.70;1.40;;;;;;;15.58;100.00;102536.00;4980790;28;20197;-68
2022/07/10 07:38:20;;;;;;;5.37;1.53;;;;;;;15.56;100.00;102531.78;4982755;28;20204;-67
2022/07/10 07:40:45;;;;;;;5.40;1.50;;;;;;;15.70;100.00;102522.00;4981960;28;20193;-68
2022/07/10 07:43:11;;;;;;;5.90;1.33;;;;;;;15.65;100.00;102536.09;4970033;28;20672;-67
2022/07/10 07:45:37;;;;;;;4.33;1.60;;;;;;;15.74;100.00;102528.72;4968207;28;20190;-68
2022/07/10 07:48:02;;;;;;;3.43;1.23;;;;;;;15.75;100.00;102495.22;4983249;28;20541;-68
2022/07/10 07:50:31;;;;;;;3.33;1.00;;;;;;;15.97;100.00;102515.84;4980209;28;20217;-67
2022/07/10 07:52:58;;;;;;;5.53;1.20;;;;;;;16.07;100.00;102530.91;4965752;28;20679;-67
2022/07/10 07:55:24;;;;;;;4.93;1.20;;;;;;;15.53;100.00;102414.03;4985907;28;20441;-67
2022/07/10 07:57:54;;;;;;;7.20;1.47;;;;;;;16.22;100.00;102502.72;4977776;28;20440;-67
2022/07/10 08:00:22;;;;;;;3.60;1.00;;;;;;;16.25;100.00;102523.97;4965051;28;20433;-66
2022/07/10 08:02:48;;;;;;;4.70;1.20;;;;;;;16.30;100.00;102509.88;4968306;28;20515;-67
2022/07/10 08:05:13;;;;;;;4.10;1.20;;;;;;;16.24;100.00;102486.28;4982009;28;20511;-66
2022/07/10 08:07:48;;;;;;;5.80;1.77;;;;;;;16.40;100.00;102491.41;4967795;28;20440;-67
2022/07/10 08:10:19;;;;;;;3.57;1.10;;;;;;;16.33;100.00;102468.03;4970928;28;20587;-67
2022/07/10 08:12:46;;;;;;;3.23;1.13;;;;;;;16.48;100.00;102487.69;4973916;28;20464;-66
2022/07/10 08:15:12;;;;;;;2.27;1.10;;;;;;;16.50;100.00;102486.47;4976295;28;20942;-67
2022/07/10 08:17:39;;;;;;;3.83;1.33;;;;;;;16.51;100.00;102468.34;4977657;28;20479;-66
2022/07/10 08:20:06;;;;;;;4.90;1.10;;;;;;;16.71;100.00;102473.88;4967969;28;20535;-66
2022/07/10 08:22:33;;;;;;;6.47;1.13;;;;;;;16.80;100.00;102467.28;4976585;28;20456;-67
2022/07/10 08:24:58;;;;;;;4.00;1.30;;;;;;;16.70;100.00;102483.06;4973358;28;21256;-68
2022/07/10 08:27:24;;;;;;;3.73;1.00;;;;;;;16.69;100.00;102489.50;4962742;28;20437;-67
2022/07/10 08:29:50;;;;;;;4.53;1.10;;;;;;;16.60;100.00;102479.84;4978151;28;20193;-68
2022/07/10 08:32:15;;;;;;;4.60;1.50;;;;;;;16.61;100.00;102484.25;4982445;28;20214;-67
2022/07/10 08:34:41;;;;;;;7.80;1.10;;;;;;;16.44;100.00;102483.72;4979523;28;20182;-67
2022/07/10 08:37:06;;;;;;;2.20;1.10;;;;;;;16.52;100.00;102488.13;4972459;28;20197;-68
2022/07/10 08:39:32;;;;;;;3.57;1.17;;;;;;;16.28;100.00;102449.66;4981658;28;20185;-67
2022/07/10 08:41:59;;;;;;;2.67;0.90;;;;;;;16.41;100.00;102484.13;4975960;28;20210;-68
2022/07/10 08:44:25;;;;;;;3.30;1.10;;;;;;;16.31;100.00;102476.31;4963979;28;20429;-68
2022/07/10 08:46:50;;;;;;;5.80;1.70;;;;;;;16.17;100.00;102475.41;4977718;28;20455;-67
2022/07/10 08:49:17;;;;;;;5.77;1.20;;;;;;;16.18;100.00;102484.38;4953295;28;20186;-68
2022/07/10 08:52:03;;;;;;;5.73;1.27;;;;;;;16.04;100.00;102468.00;4977394;28;20206;-67
2022/07/10 08:54:30;;;;;;;6.47;1.33;;;;;;;16.22;100.00;102510.84;4976918;28;20501;-67
2022/07/10 08:57:01;;;;;;;5.57;1.60;;;;;;;16.21;100.00;102508.34;4961164;28;20986;-69
2022/07/10 08:59:27;;;;;;;5.90;1.37;;;;;;;16.19;100.00;102515.81;4977097;28;20496;-69
2022/07/10 09:01:53;;;;;;;2.80;0.90;;;;;;;16.08;100.00;102491.97;4981903;28;20525;-69
2022/07/10 09:04:21;;;;;;;7.70;1.30;;;;;;;16.01;100.00;102479.22;4976611;28;20491;-70
2022/07/10 09:06:47;;;;;;;3.80;1.33;;;;;;;16.35;100.00;102512.81;4979685;28;20448;-70
2022/07/10 09:09:14;;;;;;;2.70;0.80;;;;;;;16.57;100.00;102518.19;4965991;28;20468;-70
2022/07/10 09:11:42;;;;;;;3.37;0.97;;;;;;;16.72;100.00;102516.19;4964282;28;20479;-70
2022/07/10 09:14:10;;;;;;;3.13;0.97;;;;;;;16.99;100.00;102517.22;4976302;28;20526;-72
2022/07/10 09:16:37;;;;;;;3.60;1.30;;;;;;;16.85;100.00;102489.22;4974913;28;20473;-71
2022/07/10 09:19:29;;;;;;;8.97;1.70;;;;;;;16.76;100.00;102486.84;4978653;28;20445;-69
2022/07/10 09:22:14;;;;;;;3.23;1.00;;;;;;;16.82;100.00;102495.03;4959993;28;20458;-69
2022/07/10 09:24:47;;;;;;;3.70;0.70;;;;;;;16.99;100.00;102492.84;4981745;28;20483;-69
2022/07/10 09:27:16;;;;;;;2.53;0.90;;;;;;;17.08;100.00;102497.03;4976591;28;20443;-70
2022/07/10 09:29:53;;;;;;;3.53;0.80;;;;;;;16.93;100.00;102490.94;4977919;28;20967;-69
2022/07/10 09:32:20;;;;;;;3.27;0.80;;;;;;;16.84;100.00;102475.88;4971572;28;20468;-69
2022/07/10 09:36:04;;;;;;;2.87;0.70;;;;;;;16.88;100.00;102502.38;4962665;28;20934;-70
2022/07/10 09:37:41;;;;;;;3.90;1.10;;;;;;;16.78;100.00;102501.91;4980909;28;20448;-70
2022/07/10 09:40:07;;;;;;;2.13;1.03;;;;;;;16.83;100.00;102496.69;4959938;28;20426;-71
2022/07/10 09:42:37;;;;;;;4.00;1.10;;;;;;;16.73;100.00;102498.91;4974465;28;20548;-68
2022/07/10 09:45:21;;;;;;;2.50;1.07;;;;;;;16.58;100.00;102503.63;4972993;28;20532;-69
2022/07/10 09:48:00;;;;;;;1.77;0.77;;;;;;;16.61;100.00;102504.06;4972497;28;20503;-68
2022/07/10 09:50:26;;;;;;;4.23;1.10;;;;;;;16.67;100.00;102505.13;4961986;28;20480;-68
2022/07/10 09:52:56;;;;;;;2.50;0.90;;;;;;;16.71;100.00;102504.53;4978713;28;20461;-69
2022/07/10 09:55:26;;;;;;;1.83;0.80;;;;;;;16.61;100.00;102504.06;4954199;28;20441;-68
2022/07/10 09:57:56;;;;;;;5.83;1.00;;;;;;;16.63;100.00;102507.38;4973440;28;20440;-67
2022/07/10 10:00:25;;;;;;;3.47;0.80;;;;;;;16.21;100.00;102416.28;4964756;28;20448;-67
2022/07/10 10:02:56;;;;;;;2.03;0.70;;;;;;;16.66;100.00;102496.19;4960615;28;20989;-67
2022/07/10 10:05:30;;;;;;;5.00;0.90;;;;;;;16.49;100.00;102506.47;4959179;28;20954;-67
2022/07/10 10:07:57;;;;;;;2.70;0.90;;;;;;;16.19;100.00;102521.22;4976487;28;20440;-68
2022/07/10 10:10:27;;;;;;;1.90;0.93;;;;;;;16.18;100.00;102557.47;4966313;28;20477;-67
2022/07/10 10:12:59;;;;;;;2.83;0.90;;;;;;;15.95;100.00;102561.19;4967168;28;20473;-67
2022/07/10 10:15:26;;;;;;;4.93;1.07;;;;;;;16.04;100.00;102559.19;4978030;28;20460;-68
2022/07/10 10:17:53;;;;;;;3.07;0.70;;;;;;;15.90;100.00;102571.75;4971676;28;20456;-65
2022/07/10 10:20:41;;;;;;;4.43;0.90;;;;;;;15.99;100.00;102573.28;4963559;28;20437;-67
2022/07/10 10:23:13;;;;;;;2.07;0.70;;;;;;;15.95;100.00;102568.47;4963447;28;20910;-68
2022/07/10 10:25:39;;;;;;;3.20;1.30;;;;;;;15.90;100.00;102535.75;4980535;28;20979;-67
2022/07/10 10:28:08;;;;;;;1.50;0.70;;;;;;;15.96;100.00;102553.91;4975270;28;20445;-66
2022/07/10 10:30:39;;;;;;;3.60;0.87;;;;;;;15.87;100.00;102566.72;4965879;28;20296;-67
2022/07/10 10:33:32;;;;;;;3.23;0.73;;;;;;;16.04;100.00;102561.91;4959091;28;20886;-66
2022/07/10 10:35:59;;;;;;;3.23;0.80;;;;;;;15.94;100.00;102551.41;4972934;28;20449;-68
2022/07/10 10:38:45;;;;;;;1.73;0.60;;;;;;;15.92;100.00;102552.63;4956529;28;20433;-68
2022/07/10 10:41:36;;;;;;;3.53;0.80;;;;;;;15.94;100.00;102570.34;4962756;28;20433;-69
2022/07/10 10:44:16;;;;;;;2.40;0.70;;;;;;;16.19;100.00;102575.38;4958672;28;20874;-66
2022/07/10 10:46:50;;;;;;;1.93;0.70;;;;;;;16.29;100.00;102578.59;4955773;28;20452;-66
2022/07/10 10:49:18;;;;;;;2.63;0.60;;;;;;;16.21;100.00;102578.72;4971027;28;20529;-66
2022/07/10 10:52:01;;;;;;;1.03;0.70;;;;;;;16.02;100.00;102580.19;4973415;28;20878;-67
2022/07/10 10:54:29;;;;;;;1.47;0.70;;;;;;;15.90;100.00;102585.28;4958388;28;20989;-68
2022/07/10 10:57:14;;;;;;;2.30;0.83;;;;;;;15.81;100.00;102579.16;4975376;28;20915;-67
2022/07/10 10:59:50;;;;;;;1.53;0.67;;;;;;;15.84;100.00;102579.81;4971484;28;20473;-69
2022/07/10 11:02:29;;;;;;;1.60;0.60;;;;;;;15.48;100.00;102532.78;4956805;28;20496;-68
2022/07/10 11:07:51;;;;;;;1.30;0.53;;;;;;;16.42;100.00;102569.75;4972395;28;20456;-68
2022/07/10 11:10:45;;;;;;;1.20;0.60;;;;;;;16.50;100.00;102542.53;4995822;23;20966;-76
2022/07/10 11:13:12;;;;;;;1.10;0.70;;;;;;;16.80;100.00;102556.72;4975055;28;20471;-77
2022/07/10 11:15:43;;;;;;;2.50;0.70;;;;;;;16.66;100.00;102479.91;5001336;28;20471;-76
2022/07/10 11:18:13;;;;;;;2.70;0.90;;;;;;;17.04;100.00;102559.97;5001478;28;20861;-76
2022/07/10 11:20:50;;;;;;;3.73;0.80;;;;;;;16.93;100.00;102532.41;4992619;28;20453;-76
2022/07/10 11:23:21;;;;;;;1.97;0.63;;;;;;;16.78;100.00;102552.53;4985691;28;20957;-76
2022/07/10 11:26:11;;;;;;;2.77;0.73;;;;;;;16.52;100.00;102498.97;4985808;28;20456;-77
2022/07/10 11:28:51;;;;;;;0.97;0.60;;;;;;;16.68;100.00;102552.84;4988881;28;20468;-77